Skip Navigation Links Skip Navigation Links

Current Weather

John F Kennedy Intl, New York

For information only: do not use for flight planning or navigation.
Latest weather
Observation time Friday, August 14, 2020 12:51 PM EDT
Local time Friday, August 14, 2020 1:40 PM EDT
Flight conditions Visual Meteorological Conditions
Winds
Wind direction East-Southeast (110°)
Wind speed 12 mph
Visibility 10 mi.
Sky condition
Ceiling 26,000 ft. broken clouds
Cloud layer scattered clouds 4,500 ft.
Cloud layer scattered clouds 16,000 ft.
Cloud layer broken clouds 26,000 ft.
Temperature 84°F
Dewpoint 66°F
Altimeter 30.00 in.Hg
Derived measurements
Relative humidity 55%
Heat index 86°F
Density altitude 1818 ft.
Sea-level pressure 29.99 in.Hg
Remarks
System requires maintenance.
Automated weather observing station with precipitation discriminator.
METAR KJFK 141651Z 11010KT 10SM SCT045 SCT160 BKN260 29/19 A3000 RMK AO2 SLP157 T02890189 $

Settings

Location code

InnerDrive.Weather 4.0.6770.0 Release CLR 4.0.30319.42000
Copyright ©2018 Inner Drive Technology. All rights reserved. Portions Copyright ©1986-2018 David Braverman.

Find weather

Site navigation


Skip Navigation Links

Place info

Page info

PayPal - The safer, easier way to pay online!

Return home.

Copyright ©2020 Inner Drive Technology. Purveyors of fine, hand-crafted computer software. Page printed 2020-08-14T17:40:09 UTC.